Portada
METAR-TAF:

METAR-TAF

Aeroports :

Campo Grande, Mato Grosso do Sul, Brasil

latitud: 20-28S, longitud: 054-40W, altitud: 567 m

Observació

L'informe es va fer fa 18 minuts, a les 14:00 UTC
Vent 10 kt del Est
Temperatura 32°C
Humitat 43%
Pressió 1014 hPa
Visibilitat 10 km o més
sense núvols per sota de 1500 mi sense presència de cumulonimbus.

METAR: SBCG 181400Z 09010KT CAVOK 32/18 Q1014

Hora: 11:18 (14:18 UTC)

Pronòstic

L'informe es va fer fa 5 hores i 18 minuts, a les 09:00 UTC
Pronòstic vàlid del 18 a les 12 UTC al 19 a les 12 UTC
Vent 10 kt del Est/Sud-Est
Visibilitat 10 km o més
sense núvols per sota de 1500 mi sense presència de cumulonimbus.

TAF: SBCG 180900Z 1812/1912 11010KT CAVOK TX34/1818Z TN23/1908Z RMK PDJ

Observacions i pronòstics meteorològics de més de 4000 aeroports (METAR i TAF).

Les estacions disponibles són els punts grocs i vermells al mapa.

Posi el ratolí al punt desitjat per veure el nom de l'estació.

Feu clic per veure les observacions i els pronòstics meteorològics.

Per canviar el mapa: feu clic els botons verds amb una creu de color negre per apropar; al botó verd amb un guió per allunyar la imatge; o en les fletxes verdes per a mapes adjacents.


METAR-TAF: